MKR weather

Meekatharra Airport
Western Australia, Australia

Public forecast

Using degrees Celsius for public forecast. Weather courtesy of forecast.io.

Current aviation weather report (METAR) for Meekatharra Airport

Retrieved 2020/02/26 17:00 UTC (39 minutes ago):

YMEK 261700Z AUTO 11017KT 9999 // NCD 30/13 Q1010

Closest aviation forecast (TAF) to Meekatharra Airport

Forecast is more than 12 hours old.

Closest forecast is Geraldton Airport, 242.6 nm (449.4 km) WSW. Retrieved 2020/02/25 18:00 UTC (24 hours ago):

TAF YGEL 251652Z 2518/2612 18008KT 9999 -SHRA SCT050 FM252200 14014KT CAVOK FM260500 23010KT CAVOK FM261000 18014KT CAVOK PROB30 INTER 2518/2600 VRB25G35KT 4000 TSRA SCT020 SCT070CB